Time;durP1;ratioP1;P1;durP2;ratioP2;P2;SDS_P1;SDS_P2;PMS_P1;PMS_P2;Temp;Humidity;BMP_temperature;BMP_pressure;BME280_temperature;BME280_humidity;BME280_pressure;Samples;Min_cycle;Max_cycle;Signal;HPM_P1;HPM_P2
2022/09/06 00:03:06;;;;;;;2.90;2.80;;;;;;;;;;10406528;28;20215;-79
2022/09/06 00:08:07;;;;;;;2.55;2.45;;;;;;;;;;10381186;28;20294;-79
2022/09/06 00:13:10;;;;;;;1.98;1.85;;;;;;;;;;10417049;28;20217;-79
2022/09/06 00:18:11;;;;;;;1.95;1.95;;;;;;;;;;10415801;28;20241;-78
2022/09/06 00:23:12;;;;;;;2.25;2.22;;;;;;;;;;10419655;28;21004;-79
2022/09/06 00:28:13;;;;;;;1.50;1.50;;;;;;;;;;10365121;28;20656;-79
2022/09/06 00:33:14;;;;;;;2.13;2.13;;;;;;;;;;10407602;28;20214;-79
2022/09/06 00:38:15;;;;;;;2.13;2.03;;;;;;;;;;10396970;28;20215;-78
2022/09/06 00:43:16;;;;;;;1.80;1.80;;;;;;;;;;10355175;28;20215;-79
2022/09/06 00:48:17;;;;;;;1.60;1.60;;;;;;;;;;10389069;28;20749;-79
2022/09/06 00:53:18;;;;;;;2.13;2.13;;;;;;;;;;10378863;28;20242;-78
2022/09/06 00:58:19;;;;;;;1.85;1.75;;;;;;;;;;10406474;28;20211;-79
2022/09/06 01:03:22;;;;;;;1.80;1.80;;;;;;;;;;10408446;28;20814;-79
2022/09/06 01:08:29;;;;;;;2.35;2.25;;;;;;;;;;10392682;28;20797;-79
2022/09/06 01:13:55;;;;;;;1.50;1.50;;;;;;;;;;10377622;28;20244;-79
2022/09/06 01:19:15;;;;;;;2.13;2.03;;;;;;;;;;10394462;28;20264;-79
2022/09/06 01:24:34;;;;;;;1.67;1.67;;;;;;;;;;10406258;28;20207;-78
2022/09/06 01:29:49;;;;;;;1.70;1.70;;;;;;;;;;10407891;28;20214;-78
2022/09/06 01:34:53;;;;;;;1.75;1.65;;;;;;;;;;10413125;28;20223;-78
2022/09/06 01:39:54;;;;;;;2.17;2.17;;;;;;;;;;10405819;28;20273;-78
2022/09/06 01:45:04;;;;;;;1.67;1.67;;;;;;;;;;10397500;28;20219;-78
2022/09/06 01:50:16;;;;;;;1.88;1.77;;;;;;;;;;10378660;28;20970;-75
2022/09/06 01:55:17;;;;;;;1.90;1.90;;;;;;;;;;10431419;28;20560;-78
2022/09/06 02:00:19;;;;;;;2.25;2.13;;;;;;;;;;10408817;28;20168;-76
2022/09/06 02:05:23;;;;;;;1.73;1.70;;;;;;;;;;10393030;28;20183;-78
2022/09/06 02:10:31;;;;;;;1.90;1.80;;;;;;;;;;10379973;28;20265;-78
2022/09/06 02:15:33;;;;;;;1.75;1.65;;;;;;;;;;10364074;28;20821;-76
2022/09/06 02:20:37;;;;;;;2.13;1.92;;;;;;;;;;10417273;28;20719;-77
2022/09/06 02:25:39;;;;;;;1.58;1.58;;;;;;;;;;10413278;28;20218;-77
2022/09/06 02:30:44;;;;;;;1.77;1.67;;;;;;;;;;10415106;28;20219;-77
2022/09/06 02:35:49;;;;;;;2.28;2.13;;;;;;;;;;10424844;28;20218;-77
2022/09/06 02:40:52;;;;;;;2.13;2.03;;;;;;;;;;10385943;28;20214;-77
2022/09/06 02:45:53;;;;;;;1.60;1.60;;;;;;;;;;10401352;28;20214;-78
2022/09/06 02:50:54;;;;;;;1.58;1.58;;;;;;;;;;10421410;28;20237;-78
2022/09/06 02:55:55;;;;;;;1.48;1.48;;;;;;;;;;10415024;28;20231;-78
2022/09/06 03:00:56;;;;;;;1.45;1.45;;;;;;;;;;10398768;28;20799;-77
2022/09/06 03:05:57;;;;;;;1.73;1.67;;;;;;;;;;10413715;28;20731;-78
2022/09/06 03:10:59;;;;;;;2.35;1.60;;;;;;;;;;10414349;28;20583;-77
2022/09/06 03:16:00;;;;;;;1.70;1.67;;;;;;;;;;10409977;28;20218;-77
2022/09/06 03:21:01;;;;;;;1.67;1.67;;;;;;;;;;10392877;28;20302;-77
2022/09/06 03:26:02;;;;;;;1.65;1.55;;;;;;;;;;10408231;28;20222;-78
2022/09/06 03:31:03;;;;;;;1.50;1.50;;;;;;;;;;10417740;28;20761;-77
2022/09/06 03:36:05;;;;;;;1.63;1.63;;;;;;;;;;10412418;28;20281;-78
2022/09/06 03:41:06;;;;;;;1.30;1.30;;;;;;;;;;10382452;28;20262;-78
2022/09/06 03:46:07;;;;;;;1.33;1.33;;;;;;;;;;10405702;28;20222;-78
2022/09/06 03:51:08;;;;;;;1.48;1.38;;;;;;;;;;10410774;28;20266;-78
2022/09/06 03:56:09;;;;;;;1.30;1.08;;;;;;;;;;10407840;28;20208;-78
2022/09/06 04:01:11;;;;;;;1.75;1.65;;;;;;;;;;10412952;28;20211;-77
2022/09/06 04:06:12;;;;;;;1.23;1.17;;;;;;;;;;10383570;28;20683;-77
2022/09/06 04:11:13;;;;;;;1.30;1.30;;;;;;;;;;10412518;28;20241;-77
2022/09/06 04:16:16;;;;;;;1.40;1.40;;;;;;;;;;10420809;28;20210;-77
2022/09/06 04:21:17;;;;;;;1.33;1.33;;;;;;;;;;10383075;28;20306;-78
2022/09/06 04:26:18;;;;;;;1.00;1.00;;;;;;;;;;10410720;28;20874;-78
2022/09/06 04:31:19;;;;;;;1.25;1.25;;;;;;;;;;10410346;28;20889;-78
2022/09/06 04:36:20;;;;;;;1.13;1.00;;;;;;;;;;10382648;28;20214;-77
2022/09/06 04:41:21;;;;;;;1.02;1.02;;;;;;;;;;10411330;28;20257;-77
2022/09/06 04:46:26;;;;;;;1.27;1.27;;;;;;;;;;10403993;28;20804;-77
2022/09/06 04:51:27;;;;;;;1.17;1.17;;;;;;;;;;10413067;28;20214;-78
2022/09/06 04:56:29;;;;;;;0.57;0.57;;;;;;;;;;10411784;28;20211;-78
2022/09/06 05:01:30;;;;;;;0.98;0.98;;;;;;;;;;10371299;28;20223;-77
2022/09/06 05:06:31;;;;;;;0.88;0.88;;;;;;;;;;10396393;28;20231;-78
2022/09/06 05:11:32;;;;;;;0.93;0.93;;;;;;;;;;10408798;28;20207;-78
2022/09/06 05:16:33;;;;;;;0.88;0.88;;;;;;;;;;10383468;28;20213;-77
2022/09/06 05:21:34;;;;;;;0.73;0.73;;;;;;;;;;10406684;28;20222;-78
2022/09/06 05:26:35;;;;;;;0.88;0.88;;;;;;;;;;10386227;28;21133;-78
2022/09/06 05:31:36;;;;;;;0.98;0.98;;;;;;;;;;10385587;28;20226;-78
2022/09/06 05:36:37;;;;;;;0.75;0.70;;;;;;;;;;10376866;28;20973;-78
2022/09/06 05:41:38;;;;;;;0.70;0.70;;;;;;;;;;10396746;28;20215;-78
2022/09/06 05:46:45;;;;;;;0.80;0.80;;;;;;;;;;10408081;28;20222;-77
2022/09/06 05:51:50;;;;;;;0.95;0.95;;;;;;;;;;10388451;28;20215;-78
2022/09/06 05:56:51;;;;;;;0.65;0.65;;;;;;;;;;10372031;28;20324;-77
2022/09/06 06:01:53;;;;;;;0.63;0.63;;;;;;;;;;10385357;28;20215;-78
2022/09/06 06:06:54;;;;;;;0.57;0.57;;;;;;;;;;10415014;28;20273;-77
2022/09/06 06:11:56;;;;;;;0.80;0.75;;;;;;;;;;10389854;28;20220;-77
2022/09/06 06:16:57;;;;;;;0.70;0.70;;;;;;;;;;10408937;28;20198;-77
2022/09/06 06:21:58;;;;;;;0.80;0.80;;;;;;;;;;10400409;28;20202;-77
2022/09/06 06:26:59;;;;;;;1.95;0.70;;;;;;;;;;10409374;28;20211;-77
2022/09/06 06:32:00;;;;;;;0.77;0.77;;;;;;;;;;10408736;28;20214;-77
2022/09/06 06:37:01;;;;;;;0.77;0.77;;;;;;;;;;10401068;28;20242;-78
2022/09/06 06:42:02;;;;;;;0.90;0.90;;;;;;;;;;10401317;28;20238;-78
2022/09/06 06:47:18;;;;;;;0.80;0.80;;;;;;;;;;10389925;28;20253;-77
2022/09/06 06:52:20;;;;;;;0.98;0.98;;;;;;;;;;10389982;28;20226;-77
2022/09/06 06:57:21;;;;;;;0.60;0.60;;;;;;;;;;10411875;28;20222;-77
2022/09/06 07:02:22;;;;;;;0.93;0.75;;;;;;;;;;10400205;28;20219;-77
2022/09/06 07:07:23;;;;;;;0.80;0.80;;;;;;;;;;10379357;28;20643;-77
2022/09/06 07:12:24;;;;;;;0.60;0.60;;;;;;;;;;10399806;28;20291;-77
2022/09/06 07:17:25;;;;;;;0.93;0.88;;;;;;;;;;10392660;28;20216;-77
2022/09/06 07:22:26;;;;;;;0.70;0.70;;;;;;;;;;10408963;28;20934;-77
2022/09/06 07:27:27;;;;;;;0.82;0.82;;;;;;;;;;10410929;28;20834;-77
2022/09/06 07:32:30;;;;;;;0.80;0.80;;;;;;;;;;10385054;28;20764;-78
2022/09/06 07:37:31;;;;;;;0.80;0.80;;;;;;;;;;10394421;28;20254;-78
2022/09/06 07:42:32;;;;;;;0.90;0.90;;;;;;;;;;10408521;28;20279;-78
2022/09/06 07:47:33;;;;;;;0.82;0.80;;;;;;;;;;10406812;28;20253;-78
2022/09/06 07:52:34;;;;;;;0.70;0.70;;;;;;;;;;10410059;28;20273;-78
2022/09/06 07:57:35;;;;;;;0.70;0.70;;;;;;;;;;10410550;28;20232;-78
2022/09/06 08:02:36;;;;;;;0.70;0.70;;;;;;;;;;10397205;28;20219;-77
2022/09/06 08:07:37;;;;;;;0.60;0.60;;;;;;;;;;10414032;28;20227;-78
2022/09/06 08:12:38;;;;;;;0.80;0.80;;;;;;;;;;10396160;28;20214;-79
2022/09/06 08:17:39;;;;;;;0.80;0.80;;;;;;;;;;10411646;28;20218;-79
2022/09/06 08:22:40;;;;;;;0.60;0.60;;;;;;;;;;10412318;28;20897;-78
2022/09/06 08:27:41;;;;;;;0.63;0.63;;;;;;;;;;10418451;28;20219;-79
2022/09/06 08:32:42;;;;;;;0.70;0.70;;;;;;;;;;10418449;28;20219;-79
2022/09/06 08:37:43;;;;;;;0.70;0.70;;;;;;;;;;10416553;28;20516;-79
2022/09/06 08:42:44;;;;;;;0.80;0.80;;;;;;;;;;10400495;28;20218;-79
2022/09/06 08:47:45;;;;;;;1.00;1.00;;;;;;;;;;10413031;28;20226;-78
2022/09/06 08:52:49;;;;;;;0.90;0.90;;;;;;;;;;10407325;28;20226;-79
2022/09/06 08:57:58;;;;;;;2.25;0.82;;;;;;;;;;10401535;28;20223;-78
2022/09/06 09:03:08;;;;;;;0.88;0.88;;;;;;;;;;10403819;28;20230;-78
2022/09/06 09:08:21;;;;;;;0.73;0.73;;;;;;;;;;10391736;28;20223;-78
2022/09/06 09:13:28;;;;;;;0.90;0.90;;;;;;;;;;10389338;28;20249;-79
2022/09/06 09:18:32;;;;;;;2.30;0.98;;;;;;;;;;10418526;28;20309;-78
2022/09/06 09:23:33;;;;;;;1.00;1.00;;;;;;;;;;10363400;28;20252;-79
2022/09/06 09:28:34;;;;;;;1.40;1.40;;;;;;;;;;10406654;28;20215;-79
2022/09/06 09:33:40;;;;;;;1.00;1.00;;;;;;;;;;10411246;28;20211;-77
2022/09/06 09:38:45;;;;;;;1.00;1.00;;;;;;;;;;10406160;28;20309;-78
2022/09/06 09:43:55;;;;;;;1.00;1.00;;;;;;;;;;10367924;28;20211;-78
2022/09/06 09:49:02;;;;;;;1.52;1.35;;;;;;;;;;10401252;28;20738;-79
2022/09/06 09:54:05;;;;;;;1.30;1.30;;;;;;;;;;10401116;28;20256;-79
2022/09/06 09:59:15;;;;;;;1.10;1.10;;;;;;;;;;10407188;28;20215;-78
2022/09/06 10:04:18;;;;;;;1.50;1.45;;;;;;;;;;10403724;28;20218;-78
2022/09/06 10:09:21;;;;;;;1.55;1.30;;;;;;;;;;10402775;28;20622;-79
2022/09/06 10:14:29;;;;;;;1.08;1.08;;;;;;;;;;10397555;28;20246;-79
2022/09/06 10:19:45;;;;;;;1.30;1.30;;;;;;;;;;10402908;28;20227;-79
2022/09/06 10:25:05;;;;;;;0.98;0.98;;;;;;;;;;10376967;28;20243;-77
2022/09/06 10:30:07;;;;;;;1.10;1.10;;;;;;;;;;10400095;28;20810;-80
2022/09/06 10:35:14;;;;;;;1.15;1.15;;;;;;;;;;10402391;28;20395;-79
2022/09/06 10:40:28;;;;;;;1.10;1.10;;;;;;;;;;10397740;28;20358;-78
2022/09/06 10:45:42;;;;;;;1.15;1.15;;;;;;;;;;10407672;28;20241;-79
2022/09/06 10:50:43;;;;;;;0.90;0.90;;;;;;;;;;10415856;28;20250;-79
2022/09/06 10:55:46;;;;;;;1.20;1.13;;;;;;;;;;10413946;28;20286;-79
2022/09/06 11:00:48;;;;;;;1.00;1.00;;;;;;;;;;10375973;28;20238;-79
2022/09/06 11:05:52;;;;;;;1.40;1.17;;;;;;;;;;10410968;28;20386;-78
2022/09/06 11:10:54;;;;;;;1.08;1.08;;;;;;;;;;10406609;28;20231;-79
2022/09/06 11:16:05;;;;;;;1.52;1.52;;;;;;;;;;10380104;28;20234;-79
2022/09/06 11:21:15;;;;;;;1.42;1.42;;;;;;;;;;10388660;28;20565;-79
2022/09/06 11:26:28;;;;;;;3.42;1.65;;;;;;;;;;10376442;28;20600;-79
2022/09/06 11:31:32;;;;;;;1.60;1.60;;;;;;;;;;10393227;28;20227;-78
2022/09/06 11:36:38;;;;;;;1.35;1.35;;;;;;;;;;10388925;28;20215;-79
2022/09/06 11:41:40;;;;;;;1.45;1.45;;;;;;;;;;10411355;28;20289;-79
2022/09/06 11:46:41;;;;;;;1.23;1.23;;;;;;;;;;10415555;28;20219;-79
2022/09/06 11:51:43;;;;;;;1.77;1.77;;;;;;;;;;10407378;28;20795;-79
2022/09/06 11:56:52;;;;;;;1.60;1.60;;;;;;;;;;10395228;28;20206;-79
2022/09/06 12:01:59;;;;;;;2.00;2.00;;;;;;;;;;10407442;28;20212;-79
2022/09/06 12:07:08;;;;;;;1.80;1.80;;;;;;;;;;10414074;28;20226;-79
2022/09/06 12:12:09;;;;;;;1.75;1.65;;;;;;;;;;10395532;28;20777;-79
2022/09/06 12:17:10;;;;;;;1.80;1.80;;;;;;;;;;10386355;28;21088;-78
2022/09/06 12:22:29;;;;;;;1.65;1.65;;;;;;;;;;10383625;28;20216;-79
2022/09/06 12:27:38;;;;;;;1.63;1.58;;;;;;;;;;10409743;28;20215;-80
2022/09/06 12:32:44;;;;;;;1.83;1.77;;;;;;;;;;10394784;28;20302;-79
2022/09/06 12:37:50;;;;;;;1.98;1.88;;;;;;;;;;10411898;28;20486;-78
2022/09/06 12:42:51;;;;;;;2.05;1.95;;;;;;;;;;10406684;28;20222;-78
2022/09/06 12:48:02;;;;;;;2.00;1.90;;;;;;;;;;10387330;28;20419;-79
2022/09/06 12:53:16;;;;;;;1.77;1.67;;;;;;;;;;10403839;28;20376;-79
2022/09/06 12:58:26;;;;;;;1.73;1.67;;;;;;;;;;10404844;28;20206;-79
2022/09/06 13:03:39;;;;;;;1.50;1.50;;;;;;;;;;10411590;28;20269;-79
2022/09/06 13:08:44;;;;;;;1.42;1.42;;;;;;;;;;10424684;28;20223;-79
2022/09/06 13:13:48;;;;;;;1.65;1.65;;;;;;;;;;10427152;28;20219;-79
2022/09/06 13:18:50;;;;;;;1.50;1.50;;;;;;;;;;10424851;28;20215;-78
2022/09/06 13:23:51;;;;;;;1.35;1.35;;;;;;;;;;10431229;28;20270;-79
2022/09/06 13:28:52;;;;;;;1.65;1.55;;;;;;;;;;10431862;28;20249;-79
2022/09/06 13:33:59;;;;;;;1.67;1.50;;;;;;;;;;10410953;28;20238;-78
2022/09/06 13:39:02;;;;;;;1.85;1.75;;;;;;;;;;10436034;28;21013;-78
2022/09/06 13:44:06;;;;;;;1.55;1.45;;;;;;;;;;10432193;28;20258;-78
2022/09/06 13:49:07;;;;;;;1.50;1.50;;;;;;;;;;10440509;28;20591;-77
2022/09/06 13:54:10;;;;;;;1.85;1.83;;;;;;;;;;10417774;28;20341;-79
2022/09/06 13:59:11;;;;;;;1.90;1.90;;;;;;;;;;10418932;28;20364;-78
2022/09/06 14:04:18;;;;;;;1.40;1.40;;;;;;;;;;10436187;28;20242;-78
2022/09/06 14:09:19;;;;;;;2.10;2.00;;;;;;;;;;10436488;28;20231;-78
2022/09/06 14:14:20;;;;;;;1.50;1.50;;;;;;;;;;10418666;28;20230;-78
2022/09/06 14:19:22;;;;;;;1.58;1.58;;;;;;;;;;10423916;28;20226;-78
2022/09/06 14:24:23;;;;;;;1.88;1.88;;;;;;;;;;10409099;28;20217;-79
2022/09/06 14:29:24;;;;;;;1.70;1.70;;;;;;;;;;10408222;28;20214;-79
2022/09/06 14:34:26;;;;;;;2.00;2.00;;;;;;;;;;10409965;28;20220;-79
2022/09/06 14:39:27;;;;;;;1.80;1.70;;;;;;;;;;10403271;28;20210;-79
2022/09/06 14:44:28;;;;;;;2.15;2.05;;;;;;;;;;10399713;28;20219;-78
2022/09/06 14:49:29;;;;;;;1.88;1.80;;;;;;;;;;10388720;28;20207;-78
2022/09/06 14:54:30;;;;;;;1.60;1.60;;;;;;;;;;10409215;28;20227;-78
2022/09/06 14:59:31;;;;;;;2.05;2.05;;;;;;;;;;10404274;28;20224;-78
2022/09/06 15:04:32;;;;;;;2.05;2.05;;;;;;;;;;10404897;28;20224;-79
2022/09/06 15:09:33;;;;;;;2.13;2.03;;;;;;;;;;10396768;28;20235;-78
2022/09/06 15:14:36;;;;;;;2.03;2.03;;;;;;;;;;10400937;28;20502;-78
2022/09/06 15:19:37;;;;;;;2.33;2.22;;;;;;;;;;10400566;28;20215;-78
2022/09/06 15:24:39;;;;;;;2.15;2.05;;;;;;;;;;10402761;28;20988;-78
2022/09/06 15:29:41;;;;;;;2.42;2.42;;;;;;;;;;10390184;28;20222;-78
2022/09/06 15:34:42;;;;;;;2.25;2.25;;;;;;;;;;10406310;28;20203;-78
2022/09/06 15:39:43;;;;;;;1.88;1.88;;;;;;;;;;10403094;28;20229;-78
2022/09/06 15:44:44;;;;;;;2.00;2.00;;;;;;;;;;10408394;28;20238;-78
2022/09/06 15:49:45;;;;;;;2.28;2.28;;;;;;;;;;10413615;28;20854;-79
2022/09/06 16:00:06;;;;;;;2.20;2.20;;;;;;;;;;10413660;28;20218;-77
2022/09/06 16:05:07;;;;;;;2.35;2.35;;;;;;;;;;10394312;28;20207;-78
2022/09/06 16:10:10;;;;;;;2.13;2.03;;;;;;;;;;10416330;28;20754;-77
2022/09/06 16:15:11;;;;;;;2.25;2.25;;;;;;;;;;10400833;28;20196;-77
2022/09/06 16:20:13;;;;;;;2.67;2.58;;;;;;;;;;10404783;28;20182;-77
2022/09/06 16:25:14;;;;;;;2.33;2.33;;;;;;;;;;10404106;28;20671;-78
2022/09/06 16:30:15;;;;;;;2.60;2.50;;;;;;;;;;10402642;28;20200;-77
2022/09/06 16:35:16;;;;;;;2.35;2.25;;;;;;;;;;10417171;28;20207;-77
2022/09/06 16:40:17;;;;;;;2.60;2.50;;;;;;;;;;10405093;28;20187;-78
2022/09/06 16:45:18;;;;;;;2.63;2.63;;;;;;;;;;10396001;28;20215;-78
2022/09/06 16:50:19;;;;;;;3.03;2.17;;;;;;;;;;10413242;28;20207;-77
2022/09/06 16:55:21;;;;;;;2.67;2.65;;;;;;;;;;10412734;28;20199;-78
2022/09/06 17:00:22;;;;;;;2.42;2.33;;;;;;;;;;10401832;28;20215;-78
2022/09/06 17:05:23;;;;;;;2.47;2.42;;;;;;;;;;10386033;28;20186;-78
2022/09/06 17:10:25;;;;;;;2.55;2.45;;;;;;;;;;10412141;28;20234;-79
2022/09/06 17:17:03;;;;;;;2.67;2.58;;;;;;;;;;10408788;28;20171;-79
2022/09/06 17:20:54;;;;;;;3.22;3.00;;;;;;;;;;10411089;28;20229;-79
2022/09/06 17:25:55;;;;;;;2.55;2.45;;;;;;;;;;10402328;28;20219;-79
2022/09/06 17:30:59;;;;;;;2.83;2.70;;;;;;;;;;10392469;28;20264;-78
2022/09/06 17:36:11;;;;;;;2.20;2.10;;;;;;;;;;10369649;28;20309;-78
2022/09/06 17:41:21;;;;;;;2.38;2.15;;;;;;;;;;10378884;28;20883;-77
2022/09/06 17:46:22;;;;;;;2.83;2.72;;;;;;;;;;10406596;28;20306;-77
2022/09/06 17:51:24;;;;;;;2.35;2.25;;;;;;;;;;10405110;28;20606;-78
2022/09/06 17:56:25;;;;;;;3.17;2.90;;;;;;;;;;10408345;28;20300;-79
2022/09/06 18:01:31;;;;;;;2.75;2.55;;;;;;;;;;10409787;28;20212;-77
2022/09/06 18:06:32;;;;;;;2.30;2.30;;;;;;;;;;10411035;28;20235;-78
2022/09/06 18:11:35;;;;;;;2.22;2.22;;;;;;;;;;10411491;28;20241;-79
2022/09/06 18:16:37;;;;;;;2.47;2.47;;;;;;;;;;10408482;28;20327;-79
2022/09/06 18:21:39;;;;;;;2.25;2.15;;;;;;;;;;10406065;28;20219;-78
2022/09/06 18:26:41;;;;;;;2.53;2.45;;;;;;;;;;10408793;28;20215;-79
2022/09/06 18:31:42;;;;;;;2.92;2.70;;;;;;;;;;10414769;28;20218;-79
2022/09/06 18:36:43;;;;;;;2.45;2.22;;;;;;;;;;10407035;28;20218;-78
2022/09/06 18:41:59;;;;;;;2.33;2.33;;;;;;;;;;10402141;28;20227;-79
2022/09/06 18:47:01;;;;;;;2.47;2.38;;;;;;;;;;10379344;28;21958;-79
2022/09/06 18:52:03;;;;;;;2.33;2.22;;;;;;;;;;10387736;28;20992;-78
2022/09/06 18:57:04;;;;;;;2.33;2.05;;;;;;;;;;10410140;28;20216;-79
2022/09/06 19:02:05;;;;;;;3.20;2.33;;;;;;;;;;10404117;28;20211;-76
2022/09/06 19:07:06;;;;;;;2.42;2.33;;;;;;;;;;10439965;28;20246;-77
2022/09/06 19:12:10;;;;;;;2.97;2.88;;;;;;;;;;10417367;28;20664;-77
2022/09/06 19:17:11;;;;;;;2.60;2.50;;;;;;;;;;10387416;28;20230;-78
2022/09/06 19:22:12;;;;;;;2.80;2.60;;;;;;;;;;10417039;28;20219;-78
2022/09/06 19:27:14;;;;;;;2.90;2.70;;;;;;;;;;10406768;28;20254;-77
2022/09/06 19:32:17;;;;;;;2.72;2.70;;;;;;;;;;10388579;28;20222;-77
2022/09/06 19:37:22;;;;;;;2.50;2.40;;;;;;;;;;10405566;28;20301;-78
2022/09/06 19:42:23;;;;;;;2.65;2.55;;;;;;;;;;10399765;28;21104;-78
2022/09/06 19:47:24;;;;;;;2.50;2.40;;;;;;;;;;10402237;28;20334;-77
2022/09/06 19:52:25;;;;;;;2.33;2.17;;;;;;;;;;10414996;28;20993;-78
2022/09/06 19:57:26;;;;;;;2.88;2.70;;;;;;;;;;10400469;28;20206;-77
2022/09/06 20:02:27;;;;;;;2.20;2.20;;;;;;;;;;10382995;28;21074;-77
2022/09/06 20:07:28;;;;;;;2.65;2.60;;;;;;;;;;10419855;28;20223;-78
2022/09/06 20:12:31;;;;;;;3.53;3.33;;;;;;;;;;10373213;28;22006;-77
2022/09/06 20:17:33;;;;;;;2.95;2.85;;;;;;;;;;10389453;28;20238;-77
2022/09/06 20:22:34;;;;;;;2.38;2.28;;;;;;;;;;10379197;28;20219;-77
2022/09/06 20:27:35;;;;;;;3.42;3.22;;;;;;;;;;10411651;28;20326;-78
2022/09/06 20:32:36;;;;;;;2.40;2.30;;;;;;;;;;10418127;28;20536;-77
2022/09/06 20:37:37;;;;;;;2.72;2.53;;;;;;;;;;10413617;28;20215;-77
2022/09/06 20:42:41;;;;;;;2.58;2.47;;;;;;;;;;10392217;28;20237;-77
2022/09/06 20:47:42;;;;;;;2.42;2.42;;;;;;;;;;10382996;28;20210;-78
2022/09/06 20:52:43;;;;;;;2.50;2.42;;;;;;;;;;10412209;28;20206;-77
2022/09/06 20:57:46;;;;;;;2.97;2.78;;;;;;;;;;10409755;28;20308;-77
2022/09/06 21:02:47;;;;;;;2.33;2.22;;;;;;;;;;10409022;28;20215;-78
2022/09/06 21:07:48;;;;;;;2.92;2.75;;;;;;;;;;10412200;28;20231;-77
2022/09/06 21:12:49;;;;;;;2.78;2.67;;;;;;;;;;10407792;28;20263;-77
2022/09/06 21:17:50;;;;;;;2.40;2.33;;;;;;;;;;10410511;28;20211;-77
2022/09/06 21:22:51;;;;;;;2.28;2.17;;;;;;;;;;10386589;28;20219;-77
2022/09/06 21:27:52;;;;;;;2.30;2.20;;;;;;;;;;10399325;28;20266;-77
2022/09/06 21:32:53;;;;;;;3.22;3.05;;;;;;;;;;10422479;28;20795;-76
2022/09/06 21:37:54;;;;;;;3.03;2.92;;;;;;;;;;10402815;28;20206;-77
2022/09/06 21:42:55;;;;;;;2.85;2.70;;;;;;;;;;10403300;28;20745;-77
2022/09/06 21:47:56;;;;;;;2.33;2.33;;;;;;;;;;10402484;28;20238;-78
2022/09/06 21:52:57;;;;;;;2.92;2.88;;;;;;;;;;10386903;28;20210;-77
2022/09/06 21:57:58;;;;;;;2.55;2.35;;;;;;;;;;10389358;28;20238;-77
2022/09/06 22:02:59;;;;;;;2.97;2.88;;;;;;;;;;10400380;28;20322;-77
2022/09/06 22:08:01;;;;;;;2.85;2.65;;;;;;;;;;10401599;28;20326;-76
2022/09/06 22:13:02;;;;;;;2.88;2.78;;;;;;;;;;10405714;28;20311;-77
2022/09/06 22:18:03;;;;;;;3.42;3.13;;;;;;;;;;10388838;28;20294;-77
2022/09/06 22:23:07;;;;;;;2.83;2.72;;;;;;;;;;10397934;28;20230;-77
2022/09/06 22:28:08;;;;;;;2.72;2.72;;;;;;;;;;10408476;28;20266;-76
2022/09/06 22:33:10;;;;;;;3.22;3.13;;;;;;;;;;10367311;28;20222;-77
2022/09/06 22:38:11;;;;;;;2.60;2.50;;;;;;;;;;10372582;28;20210;-77
2022/09/06 22:43:13;;;;;;;3.78;3.58;;;;;;;;;;10413345;28;20229;-76
2022/09/06 22:48:14;;;;;;;2.90;2.80;;;;;;;;;;10413433;28;20696;-76
2022/09/06 22:53:15;;;;;;;3.08;2.95;;;;;;;;;;10408336;28;21146;-77
2022/09/06 22:58:16;;;;;;;2.88;2.78;;;;;;;;;;10419798;28;20912;-76
2022/09/06 23:03:17;;;;;;;3.35;3.15;;;;;;;;;;10414503;28;20218;-78
2022/09/06 23:08:18;;;;;;;3.65;3.35;;;;;;;;;;10393407;28;20261;-77
2022/09/06 23:13:19;;;;;;;3.65;3.35;;;;;;;;;;10408413;28;20211;-76
2022/09/06 23:18:20;;;;;;;3.13;3.03;;;;;;;;;;10401991;28;20321;-77
2022/09/06 23:23:22;;;;;;;3.70;3.60;;;;;;;;;;10406632;28;20905;-77
2022/09/06 23:28:23;;;;;;;3.15;2.97;;;;;;;;;;10408846;28;20574;-77
2022/09/06 23:33:24;;;;;;;3.78;3.67;;;;;;;;;;10413781;28;20302;-76
2022/09/06 23:38:25;;;;;;;3.42;3.33;;;;;;;;;;10396358;28;20206;-76
2022/09/06 23:43:26;;;;;;;3.83;3.63;;;;;;;;;;10395000;28;20277;-77
2022/09/06 23:48:27;;;;;;;3.13;3.03;;;;;;;;;;10415095;28;20206;-77
2022/09/06 23:53:28;;;;;;;3.50;3.28;;;;;;;;;;10406899;28;20237;-77
2022/09/06 23:58:29;;;;;;;3.85;3.60;;;;;;;;;;10423844;28;20227;-77
